sensor_id;sensor_type;location;lat;lon;timestamp;P1;durP1;ratioP1;P2;durP2;ratioP2
20034;SDS011;10178;48.034;9.800;2023-12-29T00:01:54;6.83;;;4.80;;
20034;SDS011;10178;48.034;9.800;2023-12-29T00:04:20;7.93;;;5.60;;
20034;SDS011;10178;48.034;9.800;2023-12-29T00:06:46;7.20;;;5.28;;
20034;SDS011;10178;48.034;9.800;2023-12-29T00:09:11;7.10;;;4.73;;
20034;SDS011;10178;48.034;9.800;2023-12-29T00:11:37;8.37;;;5.20;;
20034;SDS011;10178;48.034;9.800;2023-12-29T00:14:03;5.40;;;4.43;;
20034;SDS011;10178;48.034;9.800;2023-12-29T00:16:29;5.90;;;4.55;;
20034;SDS011;10178;48.034;9.800;2023-12-29T00:18:54;7.27;;;4.57;;
20034;SDS011;10178;48.034;9.800;2023-12-29T00:21:20;5.43;;;4.85;;
20034;SDS011;10178;48.034;9.800;2023-12-29T00:23:46;8.23;;;4.30;;
20034;SDS011;10178;48.034;9.800;2023-12-29T00:26:13;6.72;;;4.88;;
20034;SDS011;10178;48.034;9.800;2023-12-29T00:28:41;6.50;;;4.30;;
20034;SDS011;10178;48.034;9.800;2023-12-29T00:31:07;9.00;;;5.07;;
20034;SDS011;10178;48.034;9.800;2023-12-29T00:33:34;8.23;;;4.90;;
20034;SDS011;10178;48.034;9.800;2023-12-29T00:36:00;5.60;;;4.13;;
20034;SDS011;10178;48.034;9.800;2023-12-29T00:38:26;7.18;;;4.78;;
20034;SDS011;10178;48.034;9.800;2023-12-29T00:40:52;6.78;;;4.28;;
20034;SDS011;10178;48.034;9.800;2023-12-29T00:43:18;6.13;;;4.55;;
20034;SDS011;10178;48.034;9.800;2023-12-29T00:45:44;4.43;;;3.83;;
20034;SDS011;10178;48.034;9.800;2023-12-29T00:48:09;5.53;;;3.80;;
20034;SDS011;10178;48.034;9.800;2023-12-29T00:50:35;5.95;;;3.92;;
20034;SDS011;10178;48.034;9.800;2023-12-29T00:53:00;7.40;;;4.13;;
20034;SDS011;10178;48.034;9.800;2023-12-29T00:55:26;6.37;;;4.27;;
20034;SDS011;10178;48.034;9.800;2023-12-29T00:57:51;6.30;;;4.43;;
20034;SDS011;10178;48.034;9.800;2023-12-29T01:00:18;5.60;;;4.20;;
20034;SDS011;10178;48.034;9.800;2023-12-29T01:02:44;7.35;;;4.80;;
20034;SDS011;10178;48.034;9.800;2023-12-29T01:05:10;6.57;;;4.93;;
20034;SDS011;10178;48.034;9.800;2023-12-29T01:07:41;6.60;;;4.65;;
20034;SDS011;10178;48.034;9.800;2023-12-29T01:10:07;7.15;;;4.80;;
20034;SDS011;10178;48.034;9.800;2023-12-29T01:12:33;6.22;;;4.47;;
20034;SDS011;10178;48.034;9.800;2023-12-29T01:14:58;5.80;;;4.65;;
20034;SDS011;10178;48.034;9.800;2023-12-29T01:17:24;6.85;;;5.00;;
20034;SDS011;10178;48.034;9.800;2023-12-29T01:19:52;6.25;;;4.80;;
20034;SDS011;10178;48.034;9.800;2023-12-29T01:22:18;6.10;;;4.90;;
20034;SDS011;10178;48.034;9.800;2023-12-29T01:24:43;7.80;;;4.70;;
20034;SDS011;10178;48.034;9.800;2023-12-29T01:27:09;5.53;;;4.65;;
20034;SDS011;10178;48.034;9.800;2023-12-29T01:29:35;5.90;;;4.68;;
20034;SDS011;10178;48.034;9.800;2023-12-29T01:32:00;7.57;;;4.80;;
20034;SDS011;10178;48.034;9.800;2023-12-29T01:34:28;6.35;;;4.70;;
20034;SDS011;10178;48.034;9.800;2023-12-29T01:36:57;6.18;;;4.18;;
20034;SDS011;10178;48.034;9.800;2023-12-29T01:39:23;7.90;;;4.77;;
20034;SDS011;10178;48.034;9.800;2023-12-29T01:41:49;9.38;;;6.32;;
20034;SDS011;10178;48.034;9.800;2023-12-29T01:44:19;7.40;;;5.40;;
20034;SDS011;10178;48.034;9.800;2023-12-29T01:46:46;9.10;;;5.07;;
20034;SDS011;10178;48.034;9.800;2023-12-29T01:49:15;5.78;;;4.38;;
20034;SDS011;10178;48.034;9.800;2023-12-29T01:51:42;6.93;;;4.72;;
20034;SDS011;10178;48.034;9.800;2023-12-29T01:54:09;8.27;;;5.25;;
20034;SDS011;10178;48.034;9.800;2023-12-29T01:56:36;6.72;;;5.00;;
20034;SDS011;10178;48.034;9.800;2023-12-29T01:59:03;8.10;;;5.43;;
20034;SDS011;10178;48.034;9.800;2023-12-29T02:01:29;5.75;;;4.60;;
20034;SDS011;10178;48.034;9.800;2023-12-29T02:03:55;7.85;;;4.70;;
20034;SDS011;10178;48.034;9.800;2023-12-29T02:06:21;7.18;;;4.95;;
20034;SDS011;10178;48.034;9.800;2023-12-29T02:08:47;7.28;;;4.63;;
20034;SDS011;10178;48.034;9.800;2023-12-29T02:11:13;6.63;;;4.80;;
20034;SDS011;10178;48.034;9.800;2023-12-29T02:13:39;7.35;;;4.80;;
20034;SDS011;10178;48.034;9.800;2023-12-29T02:16:07;5.97;;;4.53;;
20034;SDS011;10178;48.034;9.800;2023-12-29T02:18:40;6.18;;;4.00;;
20034;SDS011;10178;48.034;9.800;2023-12-29T02:21:08;7.20;;;4.82;;
20034;SDS011;10178;48.034;9.800;2023-12-29T02:23:34;6.13;;;4.35;;
20034;SDS011;10178;48.034;9.800;2023-12-29T02:26:01;9.40;;;5.27;;
20034;SDS011;10178;48.034;9.800;2023-12-29T02:28:32;6.60;;;4.32;;
20034;SDS011;10178;48.034;9.800;2023-12-29T02:31:01;5.03;;;4.15;;
20034;SDS011;10178;48.034;9.800;2023-12-29T02:33:50;5.97;;;4.15;;
20034;SDS011;10178;48.034;9.800;2023-12-29T02:36:17;5.65;;;4.25;;
20034;SDS011;10178;48.034;9.800;2023-12-29T02:38:44;5.40;;;4.18;;
20034;SDS011;10178;48.034;9.800;2023-12-29T02:41:09;4.80;;;4.00;;
20034;SDS011;10178;48.034;9.800;2023-12-29T02:43:38;9.60;;;5.17;;
20034;SDS011;10178;48.034;9.800;2023-12-29T02:46:04;5.93;;;4.75;;
20034;SDS011;10178;48.034;9.800;2023-12-29T02:48:29;4.43;;;3.97;;
20034;SDS011;10178;48.034;9.800;2023-12-29T02:50:55;6.47;;;4.40;;
20034;SDS011;10178;48.034;9.800;2023-12-29T02:53:21;5.68;;;3.80;;
20034;SDS011;10178;48.034;9.800;2023-12-29T02:55:46;5.55;;;4.03;;
20034;SDS011;10178;48.034;9.800;2023-12-29T02:58:12;5.43;;;3.92;;
20034;SDS011;10178;48.034;9.800;2023-12-29T03:00:37;4.85;;;3.90;;
20034;SDS011;10178;48.034;9.800;2023-12-29T03:03:03;4.65;;;3.80;;
20034;SDS011;10178;48.034;9.800;2023-12-29T03:05:29;8.63;;;3.97;;
20034;SDS011;10178;48.034;9.800;2023-12-29T03:07:54;5.43;;;4.00;;
20034;SDS011;10178;48.034;9.800;2023-12-29T03:10:20;5.95;;;4.20;;
20034;SDS011;10178;48.034;9.800;2023-12-29T03:12:46;6.43;;;3.83;;
20034;SDS011;10178;48.034;9.800;2023-12-29T03:15:11;4.50;;;3.60;;
20034;SDS011;10178;48.034;9.800;2023-12-29T03:17:37;6.73;;;4.30;;
20034;SDS011;10178;48.034;9.800;2023-12-29T03:20:02;5.03;;;3.60;;
20034;SDS011;10178;48.034;9.800;2023-12-29T03:22:30;5.95;;;3.83;;
20034;SDS011;10178;48.034;9.800;2023-12-29T03:24:55;8.03;;;4.20;;
20034;SDS011;10178;48.034;9.800;2023-12-29T03:27:21;6.07;;;4.07;;
20034;SDS011;10178;48.034;9.800;2023-12-29T03:29:46;8.55;;;5.68;;
20034;SDS011;10178;48.034;9.800;2023-12-29T03:32:12;6.15;;;4.18;;
20034;SDS011;10178;48.034;9.800;2023-12-29T03:34:38;4.88;;;3.90;;
20034;SDS011;10178;48.034;9.800;2023-12-29T03:37:03;5.60;;;3.90;;
20034;SDS011;10178;48.034;9.800;2023-12-29T03:39:29;4.65;;;3.80;;
20034;SDS011;10178;48.034;9.800;2023-12-29T03:41:55;7.60;;;4.47;;
20034;SDS011;10178;48.034;9.800;2023-12-29T03:44:20;5.97;;;3.50;;
20034;SDS011;10178;48.034;9.800;2023-12-29T03:46:46;4.80;;;3.83;;
20034;SDS011;10178;48.034;9.800;2023-12-29T03:49:11;5.43;;;3.88;;
20034;SDS011;10178;48.034;9.800;2023-12-29T03:51:37;5.43;;;3.90;;
20034;SDS011;10178;48.034;9.800;2023-12-29T03:54:03;3.95;;;3.40;;
20034;SDS011;10178;48.034;9.800;2023-12-29T03:56:29;3.97;;;3.28;;
20034;SDS011;10178;48.034;9.800;2023-12-29T03:58:54;5.50;;;3.90;;
20034;SDS011;10178;48.034;9.800;2023-12-29T04:01:20;4.97;;;3.28;;
20034;SDS011;10178;48.034;9.800;2023-12-29T04:03:45;4.72;;;3.63;;
20034;SDS011;10178;48.034;9.800;2023-12-29T04:06:11;6.10;;;3.80;;
20034;SDS011;10178;48.034;9.800;2023-12-29T04:08:37;5.35;;;3.95;;
20034;SDS011;10178;48.034;9.800;2023-12-29T04:11:03;5.40;;;4.10;;
20034;SDS011;10178;48.034;9.800;2023-12-29T04:13:30;5.80;;;3.87;;
20034;SDS011;10178;48.034;9.800;2023-12-29T04:15:56;4.95;;;3.90;;
20034;SDS011;10178;48.034;9.800;2023-12-29T04:18:22;4.47;;;3.65;;
20034;SDS011;10178;48.034;9.800;2023-12-29T04:20:49;5.93;;;4.38;;
20034;SDS011;10178;48.034;9.800;2023-12-29T04:23:15;6.05;;;3.58;;
20034;SDS011;10178;48.034;9.800;2023-12-29T04:25:41;4.70;;;3.75;;
20034;SDS011;10178;48.034;9.800;2023-12-29T04:28:07;8.90;;;4.35;;
20034;SDS011;10178;48.034;9.800;2023-12-29T04:30:33;6.78;;;3.80;;
20034;SDS011;10178;48.034;9.800;2023-12-29T04:32:59;5.77;;;4.27;;
20034;SDS011;10178;48.034;9.800;2023-12-29T04:35:25;6.03;;;4.60;;
20034;SDS011;10178;48.034;9.800;2023-12-29T04:37:51;5.10;;;3.95;;
20034;SDS011;10178;48.034;9.800;2023-12-29T04:40:17;6.55;;;3.90;;
20034;SDS011;10178;48.034;9.800;2023-12-29T04:42:43;5.82;;;3.97;;
20034;SDS011;10178;48.034;9.800;2023-12-29T04:45:09;5.15;;;4.00;;
20034;SDS011;10178;48.034;9.800;2023-12-29T04:47:35;7.40;;;4.72;;
20034;SDS011;10178;48.034;9.800;2023-12-29T04:50:01;5.85;;;4.25;;
20034;SDS011;10178;48.034;9.800;2023-12-29T04:52:27;5.38;;;4.28;;
20034;SDS011;10178;48.034;9.800;2023-12-29T04:54:52;5.97;;;3.97;;
20034;SDS011;10178;48.034;9.800;2023-12-29T04:57:18;5.77;;;4.47;;
20034;SDS011;10178;48.034;9.800;2023-12-29T04:59:44;7.65;;;4.90;;
20034;SDS011;10178;48.034;9.800;2023-12-29T05:02:09;6.53;;;4.63;;
20034;SDS011;10178;48.034;9.800;2023-12-29T05:04:35;7.53;;;4.93;;
20034;SDS011;10178;48.034;9.800;2023-12-29T05:07:00;8.45;;;4.72;;
20034;SDS011;10178;48.034;9.800;2023-12-29T05:09:26;5.35;;;4.28;;
20034;SDS011;10178;48.034;9.800;2023-12-29T05:11:52;6.53;;;4.43;;
20034;SDS011;10178;48.034;9.800;2023-12-29T05:14:17;5.20;;;3.77;;
20034;SDS011;10178;48.034;9.800;2023-12-29T05:16:43;6.28;;;4.53;;
20034;SDS011;10178;48.034;9.800;2023-12-29T05:19:09;6.67;;;4.50;;
20034;SDS011;10178;48.034;9.800;2023-12-29T05:21:35;7.60;;;4.93;;
20034;SDS011;10178;48.034;9.800;2023-12-29T05:24:00;5.67;;;3.67;;
20034;SDS011;10178;48.034;9.800;2023-12-29T05:26:26;6.17;;;4.43;;
20034;SDS011;10178;48.034;9.800;2023-12-29T05:28:52;5.10;;;4.03;;
20034;SDS011;10178;48.034;9.800;2023-12-29T05:31:17;11.00;;;4.90;;
20034;SDS011;10178;48.034;9.800;2023-12-29T05:33:46;5.63;;;4.50;;
20034;SDS011;10178;48.034;9.800;2023-12-29T05:36:12;7.23;;;4.80;;
20034;SDS011;10178;48.034;9.800;2023-12-29T05:38:37;6.13;;;4.47;;
20034;SDS011;10178;48.034;9.800;2023-12-29T05:41:04;5.97;;;4.50;;
20034;SDS011;10178;48.034;9.800;2023-12-29T05:43:30;4.33;;;3.90;;
20034;SDS011;10178;48.034;9.800;2023-12-29T05:45:57;5.77;;;4.07;;
20034;SDS011;10178;48.034;9.800;2023-12-29T05:48:26;6.00;;;4.80;;
20034;SDS011;10178;48.034;9.800;2023-12-29T05:50:52;5.22;;;4.68;;
20034;SDS011;10178;48.034;9.800;2023-12-29T05:53:17;5.50;;;4.72;;
20034;SDS011;10178;48.034;9.800;2023-12-29T05:55:43;7.23;;;4.50;;
20034;SDS011;10178;48.034;9.800;2023-12-29T05:58:10;5.22;;;4.10;;
20034;SDS011;10178;48.034;9.800;2023-12-29T06:00:38;5.70;;;4.25;;
20034;SDS011;10178;48.034;9.800;2023-12-29T06:03:04;6.10;;;4.47;;
20034;SDS011;10178;48.034;9.800;2023-12-29T06:05:31;6.35;;;4.47;;
20034;SDS011;10178;48.034;9.800;2023-12-29T06:07:58;6.60;;;4.70;;
20034;SDS011;10178;48.034;9.800;2023-12-29T06:10:23;6.30;;;4.03;;
20034;SDS011;10178;48.034;9.800;2023-12-29T06:12:49;5.30;;;4.07;;
20034;SDS011;10178;48.034;9.800;2023-12-29T06:15:15;8.52;;;4.78;;
20034;SDS011;10178;48.034;9.800;2023-12-29T06:17:41;6.47;;;5.10;;
20034;SDS011;10178;48.034;9.800;2023-12-29T06:20:07;8.43;;;4.47;;
20034;SDS011;10178;48.034;9.800;2023-12-29T06:22:34;6.80;;;4.68;;
20034;SDS011;10178;48.034;9.800;2023-12-29T06:25:05;5.77;;;4.07;;
20034;SDS011;10178;48.034;9.800;2023-12-29T06:27:33;8.20;;;4.40;;
20034;SDS011;10178;48.034;9.800;2023-12-29T06:30:02;6.93;;;4.15;;
20034;SDS011;10178;48.034;9.800;2023-12-29T06:32:29;6.20;;;4.80;;
20034;SDS011;10178;48.034;9.800;2023-12-29T06:34:55;5.57;;;3.97;;
20034;SDS011;10178;48.034;9.800;2023-12-29T06:37:20;8.05;;;5.25;;
20034;SDS011;10178;48.034;9.800;2023-12-29T06:39:46;6.38;;;4.90;;
20034;SDS011;10178;48.034;9.800;2023-12-29T06:42:11;5.47;;;4.50;;
20034;SDS011;10178;48.034;9.800;2023-12-29T06:44:37;6.43;;;4.88;;
20034;SDS011;10178;48.034;9.800;2023-12-29T06:47:03;9.33;;;5.07;;
20034;SDS011;10178;48.034;9.800;2023-12-29T06:49:30;6.70;;;4.80;;
20034;SDS011;10178;48.034;9.800;2023-12-29T06:51:56;6.80;;;4.50;;
20034;SDS011;10178;48.034;9.800;2023-12-29T06:54:22;7.87;;;5.13;;
20034;SDS011;10178;48.034;9.800;2023-12-29T06:56:48;6.07;;;4.73;;
20034;SDS011;10178;48.034;9.800;2023-12-29T06:59:13;7.07;;;5.30;;
20034;SDS011;10178;48.034;9.800;2023-12-29T07:01:39;5.57;;;4.87;;
20034;SDS011;10178;48.034;9.800;2023-12-29T07:04:06;6.73;;;5.33;;
20034;SDS011;10178;48.034;9.800;2023-12-29T07:06:35;6.70;;;4.47;;
20034;SDS011;10178;48.034;9.800;2023-12-29T07:09:03;7.67;;;5.40;;
20034;SDS011;10178;48.034;9.800;2023-12-29T07:11:29;7.47;;;5.17;;
20034;SDS011;10178;48.034;9.800;2023-12-29T07:13:55;9.52;;;5.68;;
20034;SDS011;10178;48.034;9.800;2023-12-29T07:16:21;9.47;;;6.27;;
20034;SDS011;10178;48.034;9.800;2023-12-29T07:18:47;10.45;;;6.50;;
20034;SDS011;10178;48.034;9.800;2023-12-29T07:21:13;7.90;;;5.47;;
20034;SDS011;10178;48.034;9.800;2023-12-29T07:23:40;6.77;;;4.37;;
20034;SDS011;10178;48.034;9.800;2023-12-29T07:26:06;11.33;;;5.33;;
20034;SDS011;10178;48.034;9.800;2023-12-29T07:28:32;6.27;;;4.97;;
20034;SDS011;10178;48.034;9.800;2023-12-29T07:30:58;6.00;;;4.80;;
20034;SDS011;10178;48.034;9.800;2023-12-29T07:33:25;8.13;;;4.70;;
20034;SDS011;10178;48.034;9.800;2023-12-29T07:35:51;5.77;;;3.83;;
20034;SDS011;10178;48.034;9.800;2023-12-29T07:38:16;7.33;;;4.60;;
20034;SDS011;10178;48.034;9.800;2023-12-29T07:40:42;9.43;;;5.23;;
20034;SDS011;10178;48.034;9.800;2023-12-29T07:43:08;6.77;;;4.03;;
20034;SDS011;10178;48.034;9.800;2023-12-29T07:45:34;5.70;;;4.20;;
20034;SDS011;10178;48.034;9.800;2023-12-29T07:48:01;6.47;;;5.30;;
20034;SDS011;10178;48.034;9.800;2023-12-29T07:50:28;7.00;;;4.67;;
20034;SDS011;10178;48.034;9.800;2023-12-29T07:52:53;6.57;;;4.47;;
20034;SDS011;10178;48.034;9.800;2023-12-29T07:55:19;5.80;;;4.03;;
20034;SDS011;10178;48.034;9.800;2023-12-29T07:57:44;6.27;;;4.20;;
20034;SDS011;10178;48.034;9.800;2023-12-29T08:00:12;6.17;;;4.30;;
20034;SDS011;10178;48.034;9.800;2023-12-29T08:02:40;4.93;;;4.03;;
20034;SDS011;10178;48.034;9.800;2023-12-29T08:05:05;6.95;;;4.30;;
20034;SDS011;10178;48.034;9.800;2023-12-29T08:07:35;6.17;;;4.87;;
20034;SDS011;10178;48.034;9.800;2023-12-29T08:10:02;7.85;;;6.63;;
20034;SDS011;10178;48.034;9.800;2023-12-29T08:12:29;5.17;;;3.90;;
20034;SDS011;10178;48.034;9.800;2023-12-29T08:14:55;6.53;;;3.78;;
20034;SDS011;10178;48.034;9.800;2023-12-29T08:17:21;5.73;;;3.77;;
20034;SDS011;10178;48.034;9.800;2023-12-29T08:19:47;5.53;;;3.33;;
20034;SDS011;10178;48.034;9.800;2023-12-29T08:22:12;8.68;;;4.35;;
20034;SDS011;10178;48.034;9.800;2023-12-29T08:24:40;7.13;;;4.57;;
20034;SDS011;10178;48.034;9.800;2023-12-29T08:27:08;7.07;;;4.33;;
20034;SDS011;10178;48.034;9.800;2023-12-29T08:29:35;4.80;;;3.72;;
20034;SDS011;10178;48.034;9.800;2023-12-29T08:32:01;5.93;;;4.30;;
20034;SDS011;10178;48.034;9.800;2023-12-29T08:34:27;6.05;;;4.35;;
20034;SDS011;10178;48.034;9.800;2023-12-29T08:36:52;5.40;;;3.90;;
20034;SDS011;10178;48.034;9.800;2023-12-29T08:39:18;6.40;;;4.03;;
20034;SDS011;10178;48.034;9.800;2023-12-29T08:41:44;5.00;;;4.20;;
20034;SDS011;10178;48.034;9.800;2023-12-29T08:44:09;4.97;;;3.93;;
20034;SDS011;10178;48.034;9.800;2023-12-29T08:46:35;5.40;;;4.15;;
20034;SDS011;10178;48.034;9.800;2023-12-29T08:49:01;6.18;;;3.78;;
20034;SDS011;10178;48.034;9.800;2023-12-29T08:51:27;5.90;;;4.00;;
20034;SDS011;10178;48.034;9.800;2023-12-29T08:53:53;6.65;;;4.72;;
20034;SDS011;10178;48.034;9.800;2023-12-29T08:56:19;4.73;;;3.60;;
20034;SDS011;10178;48.034;9.800;2023-12-29T08:58:45;5.50;;;3.80;;
20034;SDS011;10178;48.034;9.800;2023-12-29T09:01:11;4.50;;;3.83;;
20034;SDS011;10178;48.034;9.800;2023-12-29T09:03:37;5.40;;;3.90;;
20034;SDS011;10178;48.034;9.800;2023-12-29T09:06:03;6.17;;;4.33;;
20034;SDS011;10178;48.034;9.800;2023-12-29T09:08:29;5.20;;;3.85;;
20034;SDS011;10178;48.034;9.800;2023-12-29T09:10:55;5.40;;;3.97;;
20034;SDS011;10178;48.034;9.800;2023-12-29T09:13:21;7.47;;;3.72;;
20034;SDS011;10178;48.034;9.800;2023-12-29T09:15:50;4.20;;;3.50;;
20034;SDS011;10178;48.034;9.800;2023-12-29T09:18:16;6.50;;;3.87;;
20034;SDS011;10178;48.034;9.800;2023-12-29T09:20:41;6.17;;;4.20;;
20034;SDS011;10178;48.034;9.800;2023-12-29T09:23:07;5.57;;;4.00;;
20034;SDS011;10178;48.034;9.800;2023-12-29T09:25:32;4.37;;;3.60;;
20034;SDS011;10178;48.034;9.800;2023-12-29T09:27:58;6.30;;;4.38;;
20034;SDS011;10178;48.034;9.800;2023-12-29T09:30:24;5.60;;;4.05;;
20034;SDS011;10178;48.034;9.800;2023-12-29T09:32:49;5.00;;;3.58;;
20034;SDS011;10178;48.034;9.800;2023-12-29T09:35:15;6.70;;;4.05;;
20034;SDS011;10178;48.034;9.800;2023-12-29T09:37:42;4.80;;;4.30;;
20034;SDS011;10178;48.034;9.800;2023-12-29T09:40:09;5.68;;;4.45;;
20034;SDS011;10178;48.034;9.800;2023-12-29T09:42:35;7.15;;;4.50;;
20034;SDS011;10178;48.034;9.800;2023-12-29T09:45:03;5.03;;;3.92;;
20034;SDS011;10178;48.034;9.800;2023-12-29T09:47:34;7.70;;;4.43;;
20034;SDS011;10178;48.034;9.800;2023-12-29T09:50:03;6.53;;;3.80;;
20034;SDS011;10178;48.034;9.800;2023-12-29T09:52:30;7.28;;;3.92;;
20034;SDS011;10178;48.034;9.800;2023-12-29T09:54:56;5.47;;;4.10;;
20034;SDS011;10178;48.034;9.800;2023-12-29T09:57:22;5.37;;;3.93;;
20034;SDS011;10178;48.034;9.800;2023-12-29T09:59:49;5.55;;;4.40;;
20034;SDS011;10178;48.034;9.800;2023-12-29T10:02:19;7.35;;;3.80;;
20034;SDS011;10178;48.034;9.800;2023-12-29T10:04:47;6.78;;;4.07;;
20034;SDS011;10178;48.034;9.800;2023-12-29T10:07:14;5.55;;;4.25;;
20034;SDS011;10178;48.034;9.800;2023-12-29T10:09:45;6.63;;;4.43;;
20034;SDS011;10178;48.034;9.800;2023-12-29T10:12:12;6.95;;;4.47;;
20034;SDS011;10178;48.034;9.800;2023-12-29T10:14:49;7.30;;;4.40;;
20034;SDS011;10178;48.034;9.800;2023-12-29T10:23:11;8.53;;;4.00;;
20034;SDS011;10178;48.034;9.800;2023-12-29T10:25:48;5.93;;;3.85;;
20034;SDS011;10178;48.034;9.800;2023-12-29T10:28:14;6.40;;;3.63;;
20034;SDS011;10178;48.034;9.800;2023-12-29T10:30:43;10.70;;;4.75;;
20034;SDS011;10178;48.034;9.800;2023-12-29T10:33:08;4.37;;;3.97;;
20034;SDS011;10178;48.034;9.800;2023-12-29T10:35:35;6.60;;;4.70;;
20034;SDS011;10178;48.034;9.800;2023-12-29T10:38:12;6.07;;;4.20;;
20034;SDS011;10178;48.034;9.800;2023-12-29T10:40:38;4.82;;;3.78;;
20034;SDS011;10178;48.034;9.800;2023-12-29T10:43:04;6.05;;;4.55;;
20034;SDS011;10178;48.034;9.800;2023-12-29T10:45:32;6.35;;;4.10;;
20034;SDS011;10178;48.034;9.800;2023-12-29T10:48:01;3.85;;;3.50;;
20034;SDS011;10178;48.034;9.800;2023-12-29T10:50:27;6.00;;;4.40;;
20034;SDS011;10178;48.034;9.800;2023-12-29T10:53:14;4.00;;;3.53;;
20034;SDS011;10178;48.034;9.800;2023-12-29T10:55:39;5.73;;;4.23;;
20034;SDS011;10178;48.034;9.800;2023-12-29T10:58:05;5.95;;;4.80;;
20034;SDS011;10178;48.034;9.800;2023-12-29T11:00:31;7.65;;;4.68;;
20034;SDS011;10178;48.034;9.800;2023-12-29T11:03:00;4.63;;;3.83;;
20034;SDS011;10178;48.034;9.800;2023-12-29T11:05:26;5.43;;;3.90;;
20034;SDS011;10178;48.034;9.800;2023-12-29T11:07:52;5.80;;;3.35;;
20034;SDS011;10178;48.034;9.800;2023-12-29T11:10:20;4.38;;;3.28;;
20034;SDS011;10178;48.034;9.800;2023-12-29T11:12:49;7.20;;;4.35;;
20034;SDS011;10178;48.034;9.800;2023-12-29T11:15:15;4.75;;;3.85;;
20034;SDS011;10178;48.034;9.800;2023-12-29T11:17:41;4.40;;;3.72;;
20034;SDS011;10178;48.034;9.800;2023-12-29T11:20:26;8.48;;;3.88;;
20034;SDS011;10178;48.034;9.800;2023-12-29T11:22:52;8.15;;;4.18;;
20034;SDS011;10178;48.034;9.800;2023-12-29T11:25:19;4.35;;;3.72;;
20034;SDS011;10178;48.034;9.800;2023-12-29T11:27:45;4.30;;;3.65;;
20034;SDS011;10178;48.034;9.800;2023-12-29T11:30:11;4.47;;;3.75;;
20034;SDS011;10178;48.034;9.800;2023-12-29T11:35:22;5.40;;;3.70;;
20034;SDS011;10178;48.034;9.800;2023-12-29T11:40:38;4.15;;;3.70;;
20034;SDS011;10178;48.034;9.800;2023-12-29T11:43:07;6.60;;;3.47;;
20034;SDS011;10178;48.034;9.800;2023-12-29T11:45:39;4.47;;;3.90;;
20034;SDS011;10178;48.034;9.800;2023-12-29T11:48:05;5.88;;;3.70;;
20034;SDS011;10178;48.034;9.800;2023-12-29T11:50:35;5.30;;;3.40;;
20034;SDS011;10178;48.034;9.800;2023-12-29T11:53:08;6.20;;;3.70;;
20034;SDS011;10178;48.034;9.800;2023-12-29T11:55:37;4.68;;;3.20;;
20034;SDS011;10178;48.034;9.800;2023-12-29T11:58:04;4.88;;;3.20;;
20034;SDS011;10178;48.034;9.800;2023-12-29T12:00:48;3.25;;;2.80;;
20034;SDS011;10178;48.034;9.800;2023-12-29T12:03:15;2.80;;;2.50;;
20034;SDS011;10178;48.034;9.800;2023-12-29T12:05:48;4.85;;;3.65;;
20034;SDS011;10178;48.034;9.800;2023-12-29T12:08:30;4.38;;;3.20;;
20034;SDS011;10178;48.034;9.800;2023-12-29T12:11:41;7.25;;;3.67;;
20034;SDS011;10178;48.034;9.800;2023-12-29T12:13:54;4.90;;;3.22;;
20034;SDS011;10178;48.034;9.800;2023-12-29T12:19:09;4.10;;;3.05;;
20034;SDS011;10178;48.034;9.800;2023-12-29T12:21:36;5.05;;;2.78;;
20034;SDS011;10178;48.034;9.800;2023-12-29T12:24:03;4.43;;;3.17;;
20034;SDS011;10178;48.034;9.800;2023-12-29T12:26:33;2.80;;;2.55;;
20034;SDS011;10178;48.034;9.800;2023-12-29T12:28:59;3.00;;;2.63;;
20034;SDS011;10178;48.034;9.800;2023-12-29T12:31:25;2.47;;;2.10;;
20034;SDS011;10178;48.034;9.800;2023-12-29T12:33:55;2.70;;;2.38;;
20034;SDS011;10178;48.034;9.800;2023-12-29T12:36:22;3.88;;;2.58;;
20034;SDS011;10178;48.034;9.800;2023-12-29T12:38:52;3.28;;;2.40;;
20034;SDS011;10178;48.034;9.800;2023-12-29T12:41:19;3.53;;;2.40;;
20034;SDS011;10178;48.034;9.800;2023-12-29T12:43:48;3.80;;;2.88;;
20034;SDS011;10178;48.034;9.800;2023-12-29T12:46:22;2.45;;;2.25;;
20034;SDS011;10178;48.034;9.800;2023-12-29T12:48:50;2.42;;;2.22;;
20034;SDS011;10178;48.034;9.800;2023-12-29T12:51:16;3.00;;;2.55;;
20034;SDS011;10178;48.034;9.800;2023-12-29T12:53:46;2.00;;;1.80;;
20034;SDS011;10178;48.034;9.800;2023-12-29T12:56:13;2.50;;;2.30;;
20034;SDS011;10178;48.034;9.800;2023-12-29T12:58:39;3.35;;;2.38;;
20034;SDS011;10178;48.034;9.800;2023-12-29T13:01:05;2.40;;;2.20;;
20034;SDS011;10178;48.034;9.800;2023-12-29T13:03:31;2.65;;;1.90;;
20034;SDS011;10178;48.034;9.800;2023-12-29T13:05:57;1.63;;;1.52;;
20034;SDS011;10178;48.034;9.800;2023-12-29T13:08:24;3.80;;;2.00;;
20034;SDS011;10178;48.034;9.800;2023-12-29T13:10:50;2.97;;;1.90;;
20034;SDS011;10178;48.034;9.800;2023-12-29T13:13:16;2.30;;;2.10;;
20034;SDS011;10178;48.034;9.800;2023-12-29T13:15:47;2.85;;;1.75;;
20034;SDS011;10178;48.034;9.800;2023-12-29T13:18:14;2.63;;;1.85;;
20034;SDS011;10178;48.034;9.800;2023-12-29T13:20:43;1.80;;;1.70;;
20034;SDS011;10178;48.034;9.800;2023-12-29T13:23:12;3.38;;;2.17;;
20034;SDS011;10178;48.034;9.800;2023-12-29T13:25:39;1.90;;;1.70;;
20034;SDS011;10178;48.034;9.800;2023-12-29T13:28:06;2.60;;;1.95;;
20034;SDS011;10178;48.034;9.800;2023-12-29T13:30:32;2.55;;;2.00;;
20034;SDS011;10178;48.034;9.800;2023-12-29T13:32:59;2.70;;;1.95;;
20034;SDS011;10178;48.034;9.800;2023-12-29T13:35:33;2.00;;;1.58;;
20034;SDS011;10178;48.034;9.800;2023-12-29T13:38:08;1.98;;;1.77;;
20034;SDS011;10178;48.034;9.800;2023-12-29T13:43:21;4.68;;;2.00;;
20034;SDS011;10178;48.034;9.800;2023-12-29T13:45:47;2.13;;;1.90;;
20034;SDS011;10178;48.034;9.800;2023-12-29T13:48:13;3.53;;;1.98;;
20034;SDS011;10178;48.034;9.800;2023-12-29T13:50:50;2.22;;;2.00;;
20034;SDS011;10178;48.034;9.800;2023-12-29T13:53:19;2.15;;;1.73;;
20034;SDS011;10178;48.034;9.800;2023-12-29T13:55:46;2.38;;;1.50;;
20034;SDS011;10178;48.034;9.800;2023-12-29T13:58:11;4.88;;;2.22;;
20034;SDS011;10178;48.034;9.800;2023-12-29T14:00:41;2.08;;;1.70;;
20034;SDS011;10178;48.034;9.800;2023-12-29T14:03:27;3.30;;;1.73;;
20034;SDS011;10178;48.034;9.800;2023-12-29T14:06:03;2.20;;;1.83;;
20034;SDS011;10178;48.034;9.800;2023-12-29T14:08:32;1.65;;;1.55;;
20034;SDS011;10178;48.034;9.800;2023-12-29T14:11:07;1.88;;;1.60;;
20034;SDS011;10178;48.034;9.800;2023-12-29T14:13:34;1.98;;;1.77;;
20034;SDS011;10178;48.034;9.800;2023-12-29T14:16:00;1.85;;;1.73;;
20034;SDS011;10178;48.034;9.800;2023-12-29T14:21:31;1.60;;;1.50;;
20034;SDS011;10178;48.034;9.800;2023-12-29T14:24:13;1.70;;;1.60;;
20034;SDS011;10178;48.034;9.800;2023-12-29T14:29:24;4.93;;;2.30;;
20034;SDS011;10178;48.034;9.800;2023-12-29T14:31:50;2.22;;;2.00;;
20034;SDS011;10178;48.034;9.800;2023-12-29T14:34:17;2.92;;;1.80;;
20034;SDS011;10178;48.034;9.800;2023-12-29T14:36:43;4.20;;;2.00;;
20034;SDS011;10178;48.034;9.800;2023-12-29T14:39:08;3.05;;;2.20;;
20034;SDS011;10178;48.034;9.800;2023-12-29T14:41:35;4.50;;;2.40;;
20034;SDS011;10178;48.034;9.800;2023-12-29T14:44:01;2.97;;;2.13;;
20034;SDS011;10178;48.034;9.800;2023-12-29T14:46:27;4.10;;;2.30;;
20034;SDS011;10178;48.034;9.800;2023-12-29T14:48:53;2.60;;;2.13;;
20034;SDS011;10178;48.034;9.800;2023-12-29T14:51:19;2.47;;;2.13;;
20034;SDS011;10178;48.034;9.800;2023-12-29T14:53:46;2.38;;;1.90;;
20034;SDS011;10178;48.034;9.800;2023-12-29T14:56:14;2.53;;;2.00;;
20034;SDS011;10178;48.034;9.800;2023-12-29T14:58:40;2.30;;;1.88;;
20034;SDS011;10178;48.034;9.800;2023-12-29T15:01:07;2.15;;;1.95;;
20034;SDS011;10178;48.034;9.800;2023-12-29T15:03:33;2.03;;;1.83;;
20034;SDS011;10178;48.034;9.800;2023-12-29T15:05:59;2.65;;;1.77;;
20034;SDS011;10178;48.034;9.800;2023-12-29T15:08:25;1.83;;;1.73;;
20034;SDS011;10178;48.034;9.800;2023-12-29T15:10:53;2.03;;;1.90;;